sensor_id;sensor_type;location;lat;lon;timestamp;temperature;humidity
13256;DHT22;37913;48.370;10.930;2022-08-19T00:00:09;18.30;99.90
13256;DHT22;37913;48.370;10.930;2022-08-19T00:02:37;18.30;99.90
13256;DHT22;37913;48.370;10.930;2022-08-19T00:05:05;18.30;99.90
13256;DHT22;37913;48.370;10.930;2022-08-19T00:07:32;18.30;99.90
13256;DHT22;37913;48.370;10.930;2022-08-19T00:10:00;19.00;99.90
13256;DHT22;37913;48.370;10.930;2022-08-19T00:12:27;18.30;99.90
13256;DHT22;37913;48.370;10.930;2022-08-19T00:14:54;18.30;99.90
13256;DHT22;37913;48.370;10.930;2022-08-19T00:17:21;18.40;99.90
13256;DHT22;37913;48.370;10.930;2022-08-19T00:19:48;18.30;99.90
13256;DHT22;37913;48.370;10.930;2022-08-19T00:22:15;18.30;99.90
13256;DHT22;37913;48.370;10.930;2022-08-19T00:24:43;18.30;99.90
13256;DHT22;37913;48.370;10.930;2022-08-19T00:27:12;18.20;99.90
13256;DHT22;37913;48.370;10.930;2022-08-19T00:29:39;18.20;99.90
13256;DHT22;37913;48.370;10.930;2022-08-19T00:32:06;18.20;99.90
13256;DHT22;37913;48.370;10.930;2022-08-19T00:34:33;18.20;99.90
13256;DHT22;37913;48.370;10.930;2022-08-19T00:37:02;18.20;99.90
13256;DHT22;37913;48.370;10.930;2022-08-19T00:39:28;18.10;99.90
13256;DHT22;37913;48.370;10.930;2022-08-19T00:41:56;18.20;99.90
13256;DHT22;37913;48.370;10.930;2022-08-19T00:44:26;18.10;99.90
13256;DHT22;37913;48.370;10.930;2022-08-19T00:46:55;18.10;99.90
13256;DHT22;37913;48.370;10.930;2022-08-19T00:49:25;18.10;99.90
13256;DHT22;37913;48.370;10.930;2022-08-19T00:51:56;18.00;99.90
13256;DHT22;37913;48.370;10.930;2022-08-19T00:54:24;17.80;99.90
13256;DHT22;37913;48.370;10.930;2022-08-19T00:56:52;17.70;99.90
13256;DHT22;37913;48.370;10.930;2022-08-19T00:59:19;17.60;99.90
13256;DHT22;37913;48.370;10.930;2022-08-19T01:01:49;17.50;99.90
13256;DHT22;37913;48.370;10.930;2022-08-19T01:04:16;17.50;99.90
13256;DHT22;37913;48.370;10.930;2022-08-19T01:06:43;17.50;99.90
13256;DHT22;37913;48.370;10.930;2022-08-19T01:09:10;17.50;99.90
13256;DHT22;37913;48.370;10.930;2022-08-19T01:11:40;17.40;99.90
13256;DHT22;37913;48.370;10.930;2022-08-19T01:14:08;17.50;99.90
13256;DHT22;37913;48.370;10.930;2022-08-19T01:16:36;17.50;99.90
13256;DHT22;37913;48.370;10.930;2022-08-19T01:19:10;17.40;99.90
13256;DHT22;37913;48.370;10.930;2022-08-19T01:21:42;17.50;99.90
13256;DHT22;37913;48.370;10.930;2022-08-19T01:24:11;17.40;99.90
13256;DHT22;37913;48.370;10.930;2022-08-19T01:26:40;17.40;99.90
13256;DHT22;37913;48.370;10.930;2022-08-19T01:29:09;17.30;99.90
13256;DHT22;37913;48.370;10.930;2022-08-19T01:31:36;17.30;99.90
13256;DHT22;37913;48.370;10.930;2022-08-19T01:34:06;17.30;99.90
13256;DHT22;37913;48.370;10.930;2022-08-19T01:36:36;17.40;99.90
13256;DHT22;37913;48.370;10.930;2022-08-19T01:39:06;17.40;99.90
13256;DHT22;37913;48.370;10.930;2022-08-19T01:41:35;17.50;99.90
13256;DHT22;37913;48.370;10.930;2022-08-19T01:44:03;17.50;99.90
13256;DHT22;37913;48.370;10.930;2022-08-19T01:46:31;17.50;99.90
13256;DHT22;37913;48.370;10.930;2022-08-19T01:48:58;17.50;99.90
13256;DHT22;37913;48.370;10.930;2022-08-19T01:51:25;17.50;99.90
13256;DHT22;37913;48.370;10.930;2022-08-19T01:53:52;17.40;99.90
13256;DHT22;37913;48.370;10.930;2022-08-19T01:56:20;17.40;99.90
13256;DHT22;37913;48.370;10.930;2022-08-19T01:58:51;17.40;99.90
13256;DHT22;37913;48.370;10.930;2022-08-19T02:01:20;17.30;99.90
13256;DHT22;37913;48.370;10.930;2022-08-19T02:03:47;17.30;99.90
13256;DHT22;37913;48.370;10.930;2022-08-19T02:06:14;17.30;99.90
13256;DHT22;37913;48.370;10.930;2022-08-19T02:08:42;17.30;99.90
13256;DHT22;37913;48.370;10.930;2022-08-19T02:11:19;17.40;99.90
13256;DHT22;37913;48.370;10.930;2022-08-19T02:13:47;17.30;99.90
13256;DHT22;37913;48.370;10.930;2022-08-19T02:16:16;17.30;99.90
13256;DHT22;37913;48.370;10.930;2022-08-19T02:18:42;17.30;99.90
13256;DHT22;37913;48.370;10.930;2022-08-19T02:21:10;17.30;99.90
13256;DHT22;37913;48.370;10.930;2022-08-19T02:23:38;17.30;99.90
13256;DHT22;37913;48.370;10.930;2022-08-19T02:26:05;17.30;99.90
13256;DHT22;37913;48.370;10.930;2022-08-19T02:28:32;17.30;99.90
13256;DHT22;37913;48.370;10.930;2022-08-19T02:31:01;17.30;99.90
13256;DHT22;37913;48.370;10.930;2022-08-19T02:33:28;17.30;99.90
13256;DHT22;37913;48.370;10.930;2022-08-19T02:35:55;17.30;99.90
13256;DHT22;37913;48.370;10.930;2022-08-19T02:38:22;17.30;99.90
13256;DHT22;37913;48.370;10.930;2022-08-19T02:40:52;17.30;99.90
13256;DHT22;37913;48.370;10.930;2022-08-19T02:43:21;17.30;99.90
13256;DHT22;37913;48.370;10.930;2022-08-19T02:45:48;17.40;99.90
13256;DHT22;37913;48.370;10.930;2022-08-19T02:48:19;17.40;99.90
13256;DHT22;37913;48.370;10.930;2022-08-19T02:50:47;17.40;99.90
13256;DHT22;37913;48.370;10.930;2022-08-19T02:53:17;17.50;99.90
13256;DHT22;37913;48.370;10.930;2022-08-19T02:55:45;17.50;99.90
13256;DHT22;37913;48.370;10.930;2022-08-19T02:58:13;17.50;99.90
13256;DHT22;37913;48.370;10.930;2022-08-19T03:00:44;17.40;99.90
13256;DHT22;37913;48.370;10.930;2022-08-19T03:03:12;17.40;99.90
13256;DHT22;37913;48.370;10.930;2022-08-19T03:05:40;17.40;99.90
13256;DHT22;37913;48.370;10.930;2022-08-19T03:08:07;17.40;99.90
13256;DHT22;37913;48.370;10.930;2022-08-19T03:10:41;17.40;99.90
13256;DHT22;37913;48.370;10.930;2022-08-19T03:13:10;17.40;99.90
13256;DHT22;37913;48.370;10.930;2022-08-19T03:15:40;17.50;99.90
13256;DHT22;37913;48.370;10.930;2022-08-19T03:18:07;17.60;99.90
13256;DHT22;37913;48.370;10.930;2022-08-19T03:20:41;17.60;99.90
13256;DHT22;37913;48.370;10.930;2022-08-19T03:23:09;17.60;99.90
13256;DHT22;37913;48.370;10.930;2022-08-19T03:25:37;17.50;99.90
13256;DHT22;37913;48.370;10.930;2022-08-19T03:28:05;17.50;99.90
13256;DHT22;37913;48.370;10.930;2022-08-19T03:30:33;17.50;99.90
13256;DHT22;37913;48.370;10.930;2022-08-19T03:33:00;17.50;99.90
13256;DHT22;37913;48.370;10.930;2022-08-19T03:35:27;17.50;99.90
13256;DHT22;37913;48.370;10.930;2022-08-19T03:37:55;17.50;99.90
13256;DHT22;37913;48.370;10.930;2022-08-19T03:40:24;17.50;99.90
13256;DHT22;37913;48.370;10.930;2022-08-19T03:42:51;17.40;99.90
13256;DHT22;37913;48.370;10.930;2022-08-19T03:45:18;17.30;99.90
13256;DHT22;37913;48.370;10.930;2022-08-19T03:47:45;17.40;99.90
13256;DHT22;37913;48.370;10.930;2022-08-19T03:50:12;17.40;99.90
13256;DHT22;37913;48.370;10.930;2022-08-19T03:52:39;17.50;99.90
13256;DHT22;37913;48.370;10.930;2022-08-19T03:55:08;17.40;99.90
13256;DHT22;37913;48.370;10.930;2022-08-19T03:57:35;17.40;99.90
13256;DHT22;37913;48.370;10.930;2022-08-19T04:00:04;17.40;99.90
13256;DHT22;37913;48.370;10.930;2022-08-19T04:02:33;17.40;99.90
13256;DHT22;37913;48.370;10.930;2022-08-19T04:05:00;17.40;99.90
13256;DHT22;37913;48.370;10.930;2022-08-19T04:07:27;17.50;99.90
13256;DHT22;37913;48.370;10.930;2022-08-19T04:09:54;17.50;99.90
13256;DHT22;37913;48.370;10.930;2022-08-19T04:12:22;17.50;99.90
13256;DHT22;37913;48.370;10.930;2022-08-19T04:14:49;17.60;99.90
13256;DHT22;37913;48.370;10.930;2022-08-19T04:17:16;17.60;99.90
13256;DHT22;37913;48.370;10.930;2022-08-19T04:19:43;17.60;99.90
13256;DHT22;37913;48.370;10.930;2022-08-19T04:22:10;17.60;99.90
13256;DHT22;37913;48.370;10.930;2022-08-19T04:24:42;17.60;99.90
13256;DHT22;37913;48.370;10.930;2022-08-19T04:27:09;17.60;99.90
13256;DHT22;37913;48.370;10.930;2022-08-19T04:29:37;17.60;99.90
13256;DHT22;37913;48.370;10.930;2022-08-19T04:32:06;17.60;99.90
13256;DHT22;37913;48.370;10.930;2022-08-19T04:34:33;17.60;99.90
13256;DHT22;37913;48.370;10.930;2022-08-19T04:37:00;17.60;99.90
13256;DHT22;37913;48.370;10.930;2022-08-19T04:39:29;17.60;99.90
13256;DHT22;37913;48.370;10.930;2022-08-19T04:42:10;17.60;99.90
13256;DHT22;37913;48.370;10.930;2022-08-19T04:44:56;17.60;99.90
13256;DHT22;37913;48.370;10.930;2022-08-19T04:47:24;17.60;99.90
13256;DHT22;37913;48.370;10.930;2022-08-19T04:49:51;17.70;99.90
13256;DHT22;37913;48.370;10.930;2022-08-19T04:52:18;17.70;99.90
13256;DHT22;37913;48.370;10.930;2022-08-19T04:54:45;17.70;99.90
13256;DHT22;37913;48.370;10.930;2022-08-19T04:57:12;17.80;99.90
13256;DHT22;37913;48.370;10.930;2022-08-19T04:59:39;17.70;99.90
13256;DHT22;37913;48.370;10.930;2022-08-19T05:02:09;17.80;99.90
13256;DHT22;37913;48.370;10.930;2022-08-19T05:04:36;17.80;99.90
13256;DHT22;37913;48.370;10.930;2022-08-19T05:07:05;17.80;99.90
13256;DHT22;37913;48.370;10.930;2022-08-19T05:09:32;17.70;99.90
13256;DHT22;37913;48.370;10.930;2022-08-19T05:11:59;17.60;99.90
13256;DHT22;37913;48.370;10.930;2022-08-19T05:14:26;17.70;99.90
13256;DHT22;37913;48.370;10.930;2022-08-19T05:16:54;17.70;99.90
13256;DHT22;37913;48.370;10.930;2022-08-19T05:19:23;17.80;99.90
13256;DHT22;37913;48.370;10.930;2022-08-19T05:22:07;17.80;99.90
13256;DHT22;37913;48.370;10.930;2022-08-19T05:24:51;17.90;99.90
13256;DHT22;37913;48.370;10.930;2022-08-19T05:27:18;17.90;99.90
13256;DHT22;37913;48.370;10.930;2022-08-19T05:29:45;17.90;99.90
13256;DHT22;37913;48.370;10.930;2022-08-19T05:32:12;17.90;99.90
13256;DHT22;37913;48.370;10.930;2022-08-19T05:34:41;17.90;99.90
13256;DHT22;37913;48.370;10.930;2022-08-19T05:37:08;17.80;99.90
13256;DHT22;37913;48.370;10.930;2022-08-19T05:39:36;18.00;99.90
13256;DHT22;37913;48.370;10.930;2022-08-19T05:42:05;18.00;99.90
13256;DHT22;37913;48.370;10.930;2022-08-19T05:44:37;18.10;99.90
13256;DHT22;37913;48.370;10.930;2022-08-19T05:47:06;18.10;99.90
13256;DHT22;37913;48.370;10.930;2022-08-19T05:49:34;18.20;99.90
13256;DHT22;37913;48.370;10.930;2022-08-19T05:52:05;18.30;99.90
13256;DHT22;37913;48.370;10.930;2022-08-19T05:54:33;18.30;99.90
13256;DHT22;37913;48.370;10.930;2022-08-19T05:57:01;18.30;99.90
13256;DHT22;37913;48.370;10.930;2022-08-19T05:59:28;18.30;99.90
13256;DHT22;37913;48.370;10.930;2022-08-19T06:01:55;18.30;99.90
13256;DHT22;37913;48.370;10.930;2022-08-19T06:04:23;18.30;99.90
13256;DHT22;37913;48.370;10.930;2022-08-19T06:06:52;18.30;99.90
13256;DHT22;37913;48.370;10.930;2022-08-19T06:09:21;18.30;99.90
13256;DHT22;37913;48.370;10.930;2022-08-19T06:11:50;18.20;99.90
13256;DHT22;37913;48.370;10.930;2022-08-19T06:14:21;18.20;99.90
13256;DHT22;37913;48.370;10.930;2022-08-19T06:16:48;18.20;99.90
13256;DHT22;37913;48.370;10.930;2022-08-19T06:19:18;18.30;99.90
13256;DHT22;37913;48.370;10.930;2022-08-19T06:21:47;18.30;99.90
13256;DHT22;37913;48.370;10.930;2022-08-19T06:24:15;18.20;99.90
13256;DHT22;37913;48.370;10.930;2022-08-19T06:26:47;18.30;99.90
13256;DHT22;37913;48.370;10.930;2022-08-19T06:29:16;18.40;99.90
13256;DHT22;37913;48.370;10.930;2022-08-19T06:31:45;18.30;99.90
13256;DHT22;37913;48.370;10.930;2022-08-19T06:34:13;18.30;99.90
13256;DHT22;37913;48.370;10.930;2022-08-19T06:36:43;18.40;99.90
13256;DHT22;37913;48.370;10.930;2022-08-19T06:39:12;18.40;99.90
13256;DHT22;37913;48.370;10.930;2022-08-19T06:41:42;18.40;99.90
13256;DHT22;37913;48.370;10.930;2022-08-19T06:44:11;18.40;99.90
13256;DHT22;37913;48.370;10.930;2022-08-19T06:46:39;18.40;99.90
13256;DHT22;37913;48.370;10.930;2022-08-19T06:49:07;18.40;99.90
13256;DHT22;37913;48.370;10.930;2022-08-19T06:51:34;18.40;99.90
13256;DHT22;37913;48.370;10.930;2022-08-19T06:54:01;18.40;99.90
13256;DHT22;37913;48.370;10.930;2022-08-19T06:56:30;18.40;99.90
13256;DHT22;37913;48.370;10.930;2022-08-19T06:59:08;18.40;99.90
13256;DHT22;37913;48.370;10.930;2022-08-19T07:01:39;18.40;99.90
13256;DHT22;37913;48.370;10.930;2022-08-19T07:04:08;18.40;99.90
13256;DHT22;37913;48.370;10.930;2022-08-19T07:06:36;18.40;99.90
13256;DHT22;37913;48.370;10.930;2022-08-19T07:09:03;18.40;99.90
13256;DHT22;37913;48.370;10.930;2022-08-19T07:11:30;18.50;99.90
13256;DHT22;37913;48.370;10.930;2022-08-19T07:13:58;18.40;99.90
13256;DHT22;37913;48.370;10.930;2022-08-19T07:16:25;18.60;99.90
13256;DHT22;37913;48.370;10.930;2022-08-19T07:18:55;18.60;99.90
13256;DHT22;37913;48.370;10.930;2022-08-19T07:21:25;18.60;99.90
13256;DHT22;37913;48.370;10.930;2022-08-19T07:23:53;18.70;99.90
13256;DHT22;37913;48.370;10.930;2022-08-19T07:26:22;18.60;99.90
13256;DHT22;37913;48.370;10.930;2022-08-19T07:28:51;18.70;99.90
13256;DHT22;37913;48.370;10.930;2022-08-19T07:31:23;18.70;99.90
13256;DHT22;37913;48.370;10.930;2022-08-19T07:33:51;18.70;99.90
13256;DHT22;37913;48.370;10.930;2022-08-19T07:36:24;18.80;99.90
13256;DHT22;37913;48.370;10.930;2022-08-19T07:38:52;18.80;99.90
13256;DHT22;37913;48.370;10.930;2022-08-19T07:41:23;18.80;99.90
13256;DHT22;37913;48.370;10.930;2022-08-19T07:43:51;18.70;99.90
13256;DHT22;37913;48.370;10.930;2022-08-19T07:46:19;18.70;99.90
13256;DHT22;37913;48.370;10.930;2022-08-19T07:48:48;18.70;99.90
13256;DHT22;37913;48.370;10.930;2022-08-19T07:51:18;18.70;99.90
13256;DHT22;37913;48.370;10.930;2022-08-19T07:53:46;18.60;99.90
13256;DHT22;37913;48.370;10.930;2022-08-19T07:56:16;18.50;99.90
13256;DHT22;37913;48.370;10.930;2022-08-19T07:58:45;18.50;99.90
13256;DHT22;37913;48.370;10.930;2022-08-19T08:01:14;18.50;99.90
13256;DHT22;37913;48.370;10.930;2022-08-19T08:03:42;18.50;99.90
13256;DHT22;37913;48.370;10.930;2022-08-19T08:06:26;18.50;99.90
13256;DHT22;37913;48.370;10.930;2022-08-19T08:09:14;18.50;99.90
13256;DHT22;37913;48.370;10.930;2022-08-19T08:11:50;18.50;99.90
13256;DHT22;37913;48.370;10.930;2022-08-19T08:14:20;18.50;99.90
13256;DHT22;37913;48.370;10.930;2022-08-19T08:16:48;18.50;99.90
13256;DHT22;37913;48.370;10.930;2022-08-19T08:19:17;18.50;99.90
13256;DHT22;37913;48.370;10.930;2022-08-19T08:21:45;18.50;99.90
13256;DHT22;37913;48.370;10.930;2022-08-19T08:24:14;18.50;99.90
13256;DHT22;37913;48.370;10.930;2022-08-19T08:26:41;18.50;99.90
13256;DHT22;37913;48.370;10.930;2022-08-19T08:29:09;18.50;99.90
13256;DHT22;37913;48.370;10.930;2022-08-19T08:31:37;18.50;99.90
13256;DHT22;37913;48.370;10.930;2022-08-19T08:34:06;18.60;99.90
13256;DHT22;37913;48.370;10.930;2022-08-19T08:36:36;18.50;99.90
13256;DHT22;37913;48.370;10.930;2022-08-19T08:39:07;18.50;99.90
13256;DHT22;37913;48.370;10.930;2022-08-19T08:41:42;18.50;99.90
13256;DHT22;37913;48.370;10.930;2022-08-19T08:44:14;18.60;99.90
13256;DHT22;37913;48.370;10.930;2022-08-19T08:46:47;18.60;99.90
13256;DHT22;37913;48.370;10.930;2022-08-19T08:49:24;18.60;99.90
13256;DHT22;37913;48.370;10.930;2022-08-19T08:52:00;18.70;99.90
13256;DHT22;37913;48.370;10.930;2022-08-19T08:54:36;18.60;99.90
13256;DHT22;37913;48.370;10.930;2022-08-19T08:57:11;18.60;99.90
13256;DHT22;37913;48.370;10.930;2022-08-19T08:59:40;18.70;99.90
13256;DHT22;37913;48.370;10.930;2022-08-19T09:02:08;18.70;99.90
13256;DHT22;37913;48.370;10.930;2022-08-19T09:04:37;18.60;99.90
13256;DHT22;37913;48.370;10.930;2022-08-19T09:07:25;18.70;99.90
13256;DHT22;37913;48.370;10.930;2022-08-19T09:10:04;18.70;99.90
13256;DHT22;37913;48.370;10.930;2022-08-19T09:12:40;18.80;99.90
13256;DHT22;37913;48.370;10.930;2022-08-19T09:15:10;18.80;99.90
13256;DHT22;37913;48.370;10.930;2022-08-19T09:17:38;18.90;99.90
13256;DHT22;37913;48.370;10.930;2022-08-19T09:20:14;18.90;99.90
13256;DHT22;37913;48.370;10.930;2022-08-19T09:22:42;19.10;99.90
13256;DHT22;37913;48.370;10.930;2022-08-19T09:25:12;19.10;99.90
13256;DHT22;37913;48.370;10.930;2022-08-19T09:27:41;19.10;99.90
13256;DHT22;37913;48.370;10.930;2022-08-19T09:30:12;19.00;99.90
13256;DHT22;37913;48.370;10.930;2022-08-19T09:32:40;18.90;99.90
13256;DHT22;37913;48.370;10.930;2022-08-19T09:35:08;19.00;99.90
13256;DHT22;37913;48.370;10.930;2022-08-19T09:37:36;19.00;99.90
13256;DHT22;37913;48.370;10.930;2022-08-19T09:40:04;19.00;99.90
13256;DHT22;37913;48.370;10.930;2022-08-19T09:42:31;19.00;99.90
13256;DHT22;37913;48.370;10.930;2022-08-19T09:45:00;18.90;99.90
13256;DHT22;37913;48.370;10.930;2022-08-19T09:47:28;18.90;99.90
13256;DHT22;37913;48.370;10.930;2022-08-19T09:49:54;18.80;99.90
13256;DHT22;37913;48.370;10.930;2022-08-19T09:52:22;18.80;99.90
13256;DHT22;37913;48.370;10.930;2022-08-19T09:54:52;18.80;99.90
13256;DHT22;37913;48.370;10.930;2022-08-19T09:57:19;18.90;99.90
13256;DHT22;37913;48.370;10.930;2022-08-19T09:59:46;18.90;99.90
13256;DHT22;37913;48.370;10.930;2022-08-19T10:02:15;18.90;99.90
13256;DHT22;37913;48.370;10.930;2022-08-19T10:04:42;18.80;99.90
13256;DHT22;37913;48.370;10.930;2022-08-19T10:07:26;18.80;99.90
13256;DHT22;37913;48.370;10.930;2022-08-19T10:09:55;18.80;99.90
13256;DHT22;37913;48.370;10.930;2022-08-19T10:12:23;18.70;99.90
13256;DHT22;37913;48.370;10.930;2022-08-19T10:14:50;18.60;99.90
13256;DHT22;37913;48.370;10.930;2022-08-19T10:17:20;18.60;99.90
13256;DHT22;37913;48.370;10.930;2022-08-19T10:19:47;18.50;99.90
13256;DHT22;37913;48.370;10.930;2022-08-19T10:22:14;18.50;99.90
13256;DHT22;37913;48.370;10.930;2022-08-19T10:24:41;18.50;99.90
13256;DHT22;37913;48.370;10.930;2022-08-19T10:27:08;18.50;99.90
13256;DHT22;37913;48.370;10.930;2022-08-19T10:29:35;18.40;99.90
13256;DHT22;37913;48.370;10.930;2022-08-19T10:32:04;18.40;99.90
13256;DHT22;37913;48.370;10.930;2022-08-19T10:34:36;18.30;99.90
13256;DHT22;37913;48.370;10.930;2022-08-19T10:37:05;18.30;99.90
13256;DHT22;37913;48.370;10.930;2022-08-19T10:39:33;18.30;99.90
13256;DHT22;37913;48.370;10.930;2022-08-19T10:42:04;18.30;99.90
13256;DHT22;37913;48.370;10.930;2022-08-19T10:44:32;18.30;99.90
13256;DHT22;37913;48.370;10.930;2022-08-19T10:47:01;18.30;99.90
13256;DHT22;37913;48.370;10.930;2022-08-19T10:49:28;18.30;99.90
13256;DHT22;37913;48.370;10.930;2022-08-19T10:51:56;18.30;99.90
13256;DHT22;37913;48.370;10.930;2022-08-19T10:54:40;18.30;99.90
13256;DHT22;37913;48.370;10.930;2022-08-19T10:57:25;18.30;99.90
13256;DHT22;37913;48.370;10.930;2022-08-19T10:59:54;18.30;99.90
13256;DHT22;37913;48.370;10.930;2022-08-19T11:02:22;18.20;99.90
13256;DHT22;37913;48.370;10.930;2022-08-19T11:04:49;18.20;99.90
13256;DHT22;37913;48.370;10.930;2022-08-19T11:07:18;18.20;99.90
13256;DHT22;37913;48.370;10.930;2022-08-19T11:09:46;18.00;99.90
13256;DHT22;37913;48.370;10.930;2022-08-19T11:12:14;17.80;99.90
13256;DHT22;37913;48.370;10.930;2022-08-19T11:14:42;17.80;99.90
13256;DHT22;37913;48.370;10.930;2022-08-19T11:17:09;17.70;99.90
13256;DHT22;37913;48.370;10.930;2022-08-19T11:19:39;17.70;99.90
13256;DHT22;37913;48.370;10.930;2022-08-19T11:22:07;17.80;99.90
13256;DHT22;37913;48.370;10.930;2022-08-19T11:24:36;17.80;99.90
13256;DHT22;37913;48.370;10.930;2022-08-19T11:27:05;17.90;99.90
13256;DHT22;37913;48.370;10.930;2022-08-19T11:29:33;18.00;99.90
13256;DHT22;37913;48.370;10.930;2022-08-19T11:32:03;18.00;99.90
13256;DHT22;37913;48.370;10.930;2022-08-19T11:34:31;17.90;99.90
13256;DHT22;37913;48.370;10.930;2022-08-19T11:36:58;17.80;99.90
13256;DHT22;37913;48.370;10.930;2022-08-19T11:39:28;17.90;99.90
13256;DHT22;37913;48.370;10.930;2022-08-19T11:41:57;17.90;99.90
13256;DHT22;37913;48.370;10.930;2022-08-19T11:44:25;17.90;99.90
13256;DHT22;37913;48.370;10.930;2022-08-19T11:46:53;18.00;99.90
13256;DHT22;37913;48.370;10.930;2022-08-19T11:49:20;17.90;99.90
13256;DHT22;37913;48.370;10.930;2022-08-19T11:51:48;18.00;99.90
13256;DHT22;37913;48.370;10.930;2022-08-19T11:54:16;18.00;99.90
13256;DHT22;37913;48.370;10.930;2022-08-19T11:56:44;18.00;99.90
13256;DHT22;37913;48.370;10.930;2022-08-19T11:59:13;18.10;99.90
13256;DHT22;37913;48.370;10.930;2022-08-19T12:01:40;18.20;99.90
13256;DHT22;37913;48.370;10.930;2022-08-19T12:04:08;18.20;99.90
13256;DHT22;37913;48.370;10.930;2022-08-19T12:06:38;18.30;99.90
13256;DHT22;37913;48.370;10.930;2022-08-19T12:09:06;18.40;99.90
13256;DHT22;37913;48.370;10.930;2022-08-19T12:11:35;18.40;99.90
13256;DHT22;37913;48.370;10.930;2022-08-19T12:14:03;18.50;99.90
13256;DHT22;37913;48.370;10.930;2022-08-19T12:16:32;18.60;99.90
13256;DHT22;37913;48.370;10.930;2022-08-19T12:19:00;18.60;99.90
13256;DHT22;37913;48.370;10.930;2022-08-19T12:21:31;18.50;99.90
13256;DHT22;37913;48.370;10.930;2022-08-19T12:23:59;18.60;99.90
13256;DHT22;37913;48.370;10.930;2022-08-19T12:26:27;18.60;99.90
13256;DHT22;37913;48.370;10.930;2022-08-19T12:28:55;18.60;99.90
13256;DHT22;37913;48.370;10.930;2022-08-19T12:31:24;18.80;99.90
13256;DHT22;37913;48.370;10.930;2022-08-19T12:33:53;18.90;99.90
13256;DHT22;37913;48.370;10.930;2022-08-19T12:36:20;18.90;99.90
13256;DHT22;37913;48.370;10.930;2022-08-19T12:38:49;19.00;99.90
13256;DHT22;37913;48.370;10.930;2022-08-19T12:41:19;19.00;99.90
13256;DHT22;37913;48.370;10.930;2022-08-19T12:43:48;18.90;99.90
13256;DHT22;37913;48.370;10.930;2022-08-19T12:46:16;18.90;99.90
13256;DHT22;37913;48.370;10.930;2022-08-19T12:48:44;18.80;99.90
13256;DHT22;37913;48.370;10.930;2022-08-19T12:51:15;18.60;99.90
13256;DHT22;37913;48.370;10.930;2022-08-19T12:53:43;18.60;99.90
13256;DHT22;37913;48.370;10.930;2022-08-19T12:56:11;18.70;99.90
13256;DHT22;37913;48.370;10.930;2022-08-19T12:58:40;18.70;99.90
13256;DHT22;37913;48.370;10.930;2022-08-19T13:01:09;18.70;99.90
13256;DHT22;37913;48.370;10.930;2022-08-19T13:03:38;18.70;99.90
13256;DHT22;37913;48.370;10.930;2022-08-19T13:06:08;18.90;99.90
13256;DHT22;37913;48.370;10.930;2022-08-19T13:08:37;19.00;99.90
13256;DHT22;37913;48.370;10.930;2022-08-19T13:11:10;19.00;99.90
13256;DHT22;37913;48.370;10.930;2022-08-19T13:13:38;19.30;99.90
13256;DHT22;37913;48.370;10.930;2022-08-19T13:16:07;19.60;99.90
13256;DHT22;37913;48.370;10.930;2022-08-19T13:18:34;20.00;99.90
13256;DHT22;37913;48.370;10.930;2022-08-19T13:21:05;20.20;99.90
13256;DHT22;37913;48.370;10.930;2022-08-19T13:23:33;20.40;99.90
13256;DHT22;37913;48.370;10.930;2022-08-19T13:26:04;20.40;99.90
13256;DHT22;37913;48.370;10.930;2022-08-19T13:28:31;20.50;99.90
13256;DHT22;37913;48.370;10.930;2022-08-19T13:31:15;20.60;99.90
13256;DHT22;37913;48.370;10.930;2022-08-19T13:34:00;20.50;99.90
13256;DHT22;37913;48.370;10.930;2022-08-19T13:36:27;20.40;99.90
13256;DHT22;37913;48.370;10.930;2022-08-19T13:38:53;20.40;99.90
13256;DHT22;37913;48.370;10.930;2022-08-19T13:41:23;20.30;99.90
13256;DHT22;37913;48.370;10.930;2022-08-19T13:43:50;20.40;99.90
13256;DHT22;37913;48.370;10.930;2022-08-19T13:46:17;20.40;99.90
13256;DHT22;37913;48.370;10.930;2022-08-19T13:48:45;20.20;99.90
13256;DHT22;37913;48.370;10.930;2022-08-19T13:51:14;20.10;99.90
13256;DHT22;37913;48.370;10.930;2022-08-19T13:53:43;19.90;99.90
13256;DHT22;37913;48.370;10.930;2022-08-19T13:56:11;19.70;99.90
13256;DHT22;37913;48.370;10.930;2022-08-19T13:58:40;19.50;99.90
13256;DHT22;37913;48.370;10.930;2022-08-19T14:01:07;19.30;99.90
13256;DHT22;37913;48.370;10.930;2022-08-19T14:03:35;19.20;99.90
13256;DHT22;37913;48.370;10.930;2022-08-19T14:06:03;19.10;99.90
13256;DHT22;37913;48.370;10.930;2022-08-19T14:08:30;19.00;99.90
13256;DHT22;37913;48.370;10.930;2022-08-19T14:10:58;19.10;99.90
13256;DHT22;37913;48.370;10.930;2022-08-19T14:13:25;18.90;99.90
13256;DHT22;37913;48.370;10.930;2022-08-19T14:15:53;18.90;99.90
13256;DHT22;37913;48.370;10.930;2022-08-19T14:18:20;18.80;99.90
13256;DHT22;37913;48.370;10.930;2022-08-19T14:20:47;18.80;99.90
13256;DHT22;37913;48.370;10.930;2022-08-19T14:23:14;18.80;99.90
13256;DHT22;37913;48.370;10.930;2022-08-19T14:25:41;18.80;99.90
13256;DHT22;37913;48.370;10.930;2022-08-19T14:28:09;18.80;99.90
13256;DHT22;37913;48.370;10.930;2022-08-19T14:30:37;18.80;99.90
13256;DHT22;37913;48.370;10.930;2022-08-19T14:33:06;18.80;99.90
13256;DHT22;37913;48.370;10.930;2022-08-19T14:35:34;18.90;99.90
13256;DHT22;37913;48.370;10.930;2022-08-19T14:38:02;18.90;99.90
13256;DHT22;37913;48.370;10.930;2022-08-19T14:40:30;19.00;99.90
13256;DHT22;37913;48.370;10.930;2022-08-19T14:43:01;19.10;99.90
13256;DHT22;37913;48.370;10.930;2022-08-19T14:45:30;19.00;99.90
13256;DHT22;37913;48.370;10.930;2022-08-19T14:47:58;19.20;99.90
13256;DHT22;37913;48.370;10.930;2022-08-19T14:50:27;19.30;99.90
13256;DHT22;37913;48.370;10.930;2022-08-19T14:52:58;19.30;99.90
13256;DHT22;37913;48.370;10.930;2022-08-19T14:55:26;19.20;99.90
13256;DHT22;37913;48.370;10.930;2022-08-19T14:57:53;19.20;99.90
13256;DHT22;37913;48.370;10.930;2022-08-19T15:00:22;19.00;99.90
13256;DHT22;37913;48.370;10.930;2022-08-19T15:02:49;18.80;99.90
13256;DHT22;37913;48.370;10.930;2022-08-19T15:05:16;18.90;99.90
13256;DHT22;37913;48.370;10.930;2022-08-19T15:07:45;18.80;99.90
13256;DHT22;37913;48.370;10.930;2022-08-19T15:10:13;18.70;99.90
13256;DHT22;37913;48.370;10.930;2022-08-19T15:12:40;18.70;99.90
13256;DHT22;37913;48.370;10.930;2022-08-19T15:15:09;18.60;99.90
13256;DHT22;37913;48.370;10.930;2022-08-19T15:17:38;18.50;99.90
13256;DHT22;37913;48.370;10.930;2022-08-19T15:20:06;18.40;99.90
13256;DHT22;37913;48.370;10.930;2022-08-19T15:22:34;18.40;99.90
13256;DHT22;37913;48.370;10.930;2022-08-19T15:25:03;18.40;99.90